Relevés horaires Antwerpen / Deurne (Belgique)


Relevés horaires à Antwerpen / Deurne - Vendredi 17 Mars 2023
Heure UTC1 Température [°C] Vent [km/h] Hum. [%] Pres.4 [hPa] Visi. [Km] Nébu. [octa] Préc.5 [mm] Cond.
2m. Res. Ros. Dir.2 Vit. Moy. Raf.3
23:00 12.5 12.5 6.7 S 3.7 5.6 9.3 68 1008.1(0.8/3h) 60 0/8 -- Ciel clair
22:00 12.7 12.7 6.5 SSO 5.6 5.6 9.3 66 1008(0.9/3h) 30 7/8 -- --
21:00 13.3 13.3 6.3 SO 5.6 7.4 11.1 63 1007.7(1.0/3h) 30 7/8 -- --
20:00 14.3 14.3 6.0 S 5.6 5.6 7.4 57 1007.2(1.1/3h) 30 7/8 -- --
19:00 14.8 14.8 5.6 SSO 3.7 7.4 9.3 54 1007.1(1.1/3h) 30 7/8 -- --
18:00 15.3 15.3 5.3 SSO 5.6 9.3 14.8 51 1006.7(1.2/3h) 30 7/8 0/12h
--
17:00 16.0 16.0 5.4 SO 5.6 7.4 11.1 49 1006.1(0.2/3h) 30 8/8 -- --
16:00 16.9 16.9 5.7 SO 7.4 9.3 14.8 48 1005.9(-0.8/3h) 25 8/8 -- --
15:00 17.1 17.1 7.2 ESE 3.7 5.6 9.3 52 1005.5(-1.5/3h) 25 7/8 -- --
14:00 16.9 16.9 6.8 ESE 5.6 5.6 9.3 51 1005.9(-1.6/3h) 25 8/8 -- --
13:00 16.3 16.3 5.5 SSE 5.6 5.6 9.3 49 1006.7(-1.1/3h) 25 8/8 -- --
12:00 15.3 15.3 5.3 S 3.7 7.4 11.1 51 1007.1(-0.3/3h) 25 8/8 0/6h
--
11:00 13.9 13.9 4.2 S 3.7 7.4 11.1 52 1007.5(0.8/3h) 25 8/8 -- --
10:00 12.8 12.4 3.7 S 7.4 7.4 9.3 54 1007.8(0.9/3h) 25 8/8 -- --
09:00 11.5 11.5 3.3 S 3.7 5.6 9.3 57 1007.4(0.2/3h) 30 7/8 -- --
08:00 9.6 9.1 2.8 SE 5.6 5.6 7.4 62 1006.8(-0.5/3h) 30 7/8 -- --
07:00 6.2 6.2 2.7 SE 3.7 3.7 5.6 78 1007(-0.2/3h) 30 7/8 -- --
06:00 5.7 5.7 1.4 SSE 3.7 5.6 5.6 74 1007.2(0.3/3h) 30 7/8 0/12h
--
05:00 6.1 6.1 2.2 SSE 3.7 5.6 5.6 76 1007.3(0.2/3h) >70 0/8 -- Ciel clair
04:00 6.1 6.1 1.8 SSE 3.7 5.6 5.6 74 1007.2(-0.4/3h) >70 0/8 -- Ciel clair
03:00 7.6 7.6 1.6 SE 3.7 3.7 5.6 66 1006.9(-0.8/3h) >70 0/8 -- Ciel clair
02:00 6.3 6.3 2.0 SE 3.7 3.7 5.6 74 1007.1(-0.8/3h) >70 0/8 -- Ciel clair
01:00 7.3 7.3 1.7 ESE 1.9 3.7 5.6 68 1007.6(-0.7/3h) >70 0/8 -- Ciel clair
00:00 7.1 7.1 2.4 ESE 3.7 7.4 9.3 72 1007.7(-0.7/3h) >70 0/8 0/6h
0/24h
Ciel clair

1 Coordinated Universal Time. Actuellement il est 18:00 locale et 16:00 UTC.

2 Le vent souffle depuis la direction indiquée vers la direction oposée.

3 Les rafales max. sont disponible 40 min après l'heure du relevé.

4 Pour les stations d'altitude (plus de 600m) le géopotentiel du niveau le plus proche de la pression obligatoire est indiqué.

5 Les stations disposant d'un diffuseur peuvent indiquer "trace". Cela signifie que des précipitations ont touchés le sol mais que la quantité est inférieure à 0.1 mm.

Récapitulatif de la journée
Température [°C] Vent [km/h] Ensoleillement4 [h] Precipitations totale5 [mm] Pression [Hpa]
Min1 Max.2 Moy.3 Max. Min Max.
5.4 17.9 6.1 14.8 0 h 0 min 0 1005.5 1008.1

1 Température minimale relevée entre 18:00 UTC la veille et 18:00 UTC le jour donné.

2 Température maximale relevée entre 06:00 UTC le jour donné et 06:00 UTC le lendemain.

3 Vent moyen de la journée basé sur les relevés horaires.

4 Ensoleillement en heures relevé entre 06:00 UTC la veille et 06:00 UTC le jour donné.

5 Précipitations totales tombées entre 06:00 UTC la jour donné et 06:00 UTC le lendemain.

Graphiques horaires